createdAt,value
2022-07-25T00:00:26.945Z,20.10
2022-07-25T00:02:53.754Z,20.10
2022-07-25T00:05:20.845Z,20.10
2022-07-25T00:10:15.406Z,20.10
2022-07-25T00:15:10.004Z,19.90
2022-07-25T00:17:37.114Z,19.90
2022-07-25T00:20:05.274Z,19.90
2022-07-25T00:22:32.115Z,19.90
2022-07-25T00:24:58.998Z,19.80
2022-07-25T00:27:25.909Z,19.80
2022-07-25T00:29:52.800Z,19.80
2022-07-25T00:32:19.716Z,19.80
2022-07-25T00:34:46.576Z,19.80
2022-07-25T00:37:13.379Z,19.80
2022-07-25T00:39:40.172Z,19.90
2022-07-25T00:42:07.142Z,19.70
2022-07-25T00:44:34.381Z,19.70
2022-07-25T01:09:11.782Z,19.70
2022-07-25T04:58:15.865Z,19.60
2022-07-25T05:30:12.455Z,19.20
2022-07-25T05:32:40.569Z,19.80
2022-07-25T05:35:08.287Z,19.80
2022-07-25T05:37:36.289Z,19.90
2022-07-25T05:42:34.350Z,20.00
2022-07-25T05:47:28.559Z,20.10
2022-07-25T05:59:44.773Z,20.30
2022-07-25T06:02:11.763Z,20.80
2022-07-25T06:07:05.831Z,20.90
2022-07-25T06:21:52.407Z,21.20
2022-07-25T06:24:19.269Z,22.40
2022-07-25T06:26:46.121Z,22.60
2022-07-25T06:29:12.987Z,22.70
2022-07-25T06:31:40.047Z,22.90
2022-07-25T06:34:07.720Z,23.00
2022-07-25T07:01:12.376Z,24.40
2022-07-25T07:06:09.417Z,25.80
2022-07-25T07:08:36.481Z,25.90
2022-07-25T07:11:03.781Z,25.80
2022-07-25T07:13:30.656Z,26.00
2022-07-25T07:15:57.784Z,26.10
2022-07-25T07:18:24.741Z,26.20
2022-07-25T07:23:19.485Z,26.60
2022-07-25T07:25:47.194Z,26.70
2022-07-25T07:28:15.690Z,26.90
2022-07-25T07:35:57.145Z,27.70
2022-07-25T07:38:24.845Z,27.90
2022-07-25T07:40:52.132Z,28.00
2022-07-25T07:43:19.544Z,28.20
2022-07-25T07:45:46.434Z,28.50
2022-07-25T07:48:13.293Z,28.80
2022-07-25T07:50:41.010Z,29.00
2022-07-25T07:53:07.947Z,29.20
2022-07-25T07:55:48.854Z,29.40
2022-07-25T07:58:18.959Z,29.60
2022-07-25T08:00:48.942Z,29.70
2022-07-25T08:03:20.966Z,29.80
2022-07-25T08:05:49.130Z,30.00
2022-07-25T08:08:16.485Z,30.20
2022-07-25T08:10:45.761Z,30.20
2022-07-25T08:13:34.216Z,30.50
2022-07-25T08:16:03.679Z,30.50
2022-07-25T08:18:34.982Z,30.60
2022-07-25T08:21:06.483Z,30.70
2022-07-25T08:23:38.929Z,30.90
2022-07-25T08:26:06.830Z,31.00
2022-07-25T08:28:33.666Z,31.30
2022-07-25T08:31:00.852Z,31.40
2022-07-25T08:33:28.871Z,31.40
2022-07-25T08:35:56.283Z,31.60
2022-07-25T08:38:25.663Z,31.80
2022-07-25T08:40:54.799Z,31.70
2022-07-25T08:43:22.055Z,32.00
2022-07-25T08:48:19.609Z,32.30
2022-07-25T08:50:48.362Z,32.40
2022-07-25T08:53:35.433Z,32.50
2022-07-25T08:56:13.327Z,32.80
2022-07-25T08:58:41.925Z,32.70
2022-07-25T09:01:11.479Z,33.10
2022-07-25T09:03:38.734Z,33.10
2022-07-25T09:06:20.630Z,33.30
2022-07-25T09:08:59.039Z,33.30
2022-07-25T09:11:27.675Z,33.40
2022-07-25T09:14:07.359Z,33.50
2022-07-25T09:16:39.973Z,33.60
2022-07-25T09:19:14.552Z,33.70
2022-07-25T09:21:43.083Z,33.80
2022-07-25T09:24:16.054Z,33.90
2022-07-25T09:29:17.392Z,34.20
2022-07-25T09:31:44.377Z,34.20
2022-07-25T09:34:12.730Z,34.20
2022-07-25T09:36:52.250Z,34.10
2022-07-25T09:39:19.092Z,34.20
2022-07-25T09:41:45.899Z,34.40
2022-07-25T09:44:16.915Z,34.50
2022-07-25T09:46:43.831Z,34.70
2022-07-25T09:51:42.706Z,34.80
2022-07-25T09:54:10.272Z,34.90
2022-07-25T09:56:37.265Z,34.90
2022-07-25T09:59:05.582Z,34.80
2022-07-25T10:01:41.554Z,34.90
2022-07-25T10:04:38.477Z,34.90
2022-07-25T10:07:16.145Z,35.00
2022-07-25T10:09:49.347Z,35.10
2022-07-25T10:12:21.258Z,35.10
2022-07-25T10:15:13.247Z,35.20
2022-07-25T10:17:41.602Z,35.10
2022-07-25T10:20:10.249Z,35.10
2022-07-25T10:22:58.046Z,35.10
2022-07-25T10:25:25.522Z,35.20
2022-07-25T10:28:01.205Z,35.20
2022-07-25T10:30:38.896Z,35.20
2022-07-25T10:33:15.952Z,35.20
2022-07-25T10:35:42.831Z,35.20
2022-07-25T10:38:10.495Z,34.90
2022-07-25T10:40:43.290Z,35.10
2022-07-25T10:43:15.307Z,35.10
2022-07-25T10:45:48.378Z,35.10
2022-07-25T10:48:28.941Z,35.10
2022-07-25T10:51:12.152Z,35.00
2022-07-25T10:53:47.495Z,34.90
2022-07-25T10:56:26.563Z,34.80
2022-07-25T10:59:01.745Z,34.60
2022-07-25T11:01:33.564Z,34.60
2022-07-25T11:04:03.722Z,34.70
2022-07-25T11:06:39.026Z,34.60
2022-07-25T11:09:23.812Z,34.60
2022-07-25T11:11:58.792Z,34.50
2022-07-25T11:14:33.877Z,34.50
2022-07-25T11:17:14.885Z,34.50
2022-07-25T11:19:53.825Z,34.50
2022-07-25T11:22:20.710Z,34.40
2022-07-25T11:24:47.821Z,34.40
2022-07-25T11:27:23.994Z,34.40
2022-07-25T11:29:51.552Z,34.30
2022-07-25T11:32:18.636Z,34.40
2022-07-25T11:34:52.932Z,34.40
2022-07-25T11:37:21.072Z,34.40
2022-07-25T11:39:48.895Z,34.50
2022-07-25T11:42:18.742Z,34.60
2022-07-25T11:44:48.949Z,34.70
2022-07-25T11:47:26.470Z,34.70
2022-07-25T11:49:54.694Z,34.70
2022-07-25T11:52:23.415Z,34.90
2022-07-25T11:54:59.055Z,35.10
2022-07-25T11:57:28.148Z,35.20
2022-07-25T11:59:56.118Z,35.40
2022-07-25T12:02:25.586Z,35.70
2022-07-25T12:05:05.786Z,35.80
2022-07-25T12:07:53.197Z,36.00
2022-07-25T12:10:23.579Z,36.00
2022-07-25T12:12:52.725Z,36.20
2022-07-25T12:15:31.254Z,36.30
2022-07-25T12:17:59.028Z,36.40
2022-07-25T12:20:31.332Z,36.40
2022-07-25T12:23:01.918Z,36.40
2022-07-25T12:25:31.186Z,36.40
2022-07-25T12:27:59.163Z,36.40
2022-07-25T12:30:28.224Z,36.30
2022-07-25T12:32:56.569Z,36.30
2022-07-25T12:35:24.062Z,36.40
2022-07-25T12:37:51.534Z,36.30
2022-07-25T12:40:19.750Z,36.30
2022-07-25T12:42:47.430Z,36.30
2022-07-25T12:45:15.681Z,36.20
2022-07-25T12:47:45.212Z,36.10
2022-07-25T12:50:13.677Z,35.90
2022-07-25T12:52:41.679Z,35.80
2022-07-25T12:55:11.657Z,35.70
2022-07-25T12:57:39.220Z,35.60
2022-07-25T13:00:09.325Z,35.40
2022-07-25T13:02:36.260Z,35.30
2022-07-25T13:05:03.494Z,35.20
2022-07-25T13:07:30.517Z,35.10
2022-07-25T13:09:57.278Z,35.00
2022-07-25T13:12:26.535Z,34.90
2022-07-25T13:14:53.346Z,34.90
2022-07-25T13:17:24.945Z,34.90
2022-07-25T13:19:54.795Z,34.80
2022-07-25T13:22:24.398Z,34.80
2022-07-25T13:24:51.561Z,34.80
2022-07-25T13:27:19.770Z,34.70
2022-07-25T13:29:47.131Z,34.60
2022-07-25T13:32:14.179Z,34.50
2022-07-25T13:34:41.103Z,34.40
2022-07-25T13:37:07.997Z,34.40
2022-07-25T13:39:35.845Z,34.40
2022-07-25T13:42:03.457Z,34.40
2022-07-25T13:44:30.404Z,34.30
2022-07-25T13:46:58.679Z,34.20
2022-07-25T13:49:25.918Z,34.20
2022-07-25T13:51:53.204Z,34.20
2022-07-25T13:54:20.113Z,34.30
2022-07-25T13:56:47.590Z,34.10
2022-07-25T13:59:20.466Z,34.20
2022-07-25T14:01:51.139Z,34.00
2022-07-25T14:04:18.312Z,34.00
2022-07-25T14:06:45.560Z,34.00
2022-07-25T14:09:12.348Z,34.10
2022-07-25T14:11:39.147Z,34.10
2022-07-25T14:14:06.229Z,34.10
2022-07-25T14:16:34.041Z,34.10
2022-07-25T14:19:02.180Z,34.10
2022-07-25T14:21:29.671Z,34.00
2022-07-25T14:23:56.508Z,34.00
2022-07-25T14:26:23.924Z,33.70
2022-07-25T14:28:50.762Z,33.60
2022-07-25T14:31:17.835Z,33.40
2022-07-25T14:33:44.674Z,33.00
2022-07-25T14:36:11.568Z,32.40
2022-07-25T14:38:38.514Z,31.80
2022-07-25T14:41:10.731Z,31.40
2022-07-25T14:43:40.132Z,31.20
2022-07-25T14:46:08.261Z,30.70
2022-07-25T14:48:38.573Z,30.50
2022-07-25T14:51:06.446Z,30.30
2022-07-25T14:53:36.313Z,29.90
2022-07-25T14:56:06.787Z,29.50
2022-07-25T14:58:33.782Z,29.30
2022-07-25T15:01:01.150Z,28.70
2022-07-25T15:03:28.105Z,28.70
2022-07-25T15:05:54.956Z,28.50
2022-07-25T15:08:22.205Z,27.80
2022-07-25T15:10:49.071Z,27.70
2022-07-25T15:13:32.207Z,27.50
2022-07-25T15:16:00.049Z,27.10
2022-07-25T15:18:27.091Z,27.10
2022-07-25T15:20:56.107Z,26.90
2022-07-25T15:23:25.299Z,26.90
2022-07-25T15:26:03.161Z,26.50
2022-07-25T15:28:32.431Z,26.20
2022-07-25T15:30:59.299Z,26.10
2022-07-25T15:33:26.401Z,25.90
2022-07-25T15:38:20.754Z,25.50
2022-07-25T15:40:48.071Z,25.20
2022-07-25T15:43:16.889Z,25.10
2022-07-25T15:45:46.165Z,25.00
2022-07-25T15:48:14.483Z,24.60
2022-07-25T15:55:40.012Z,23.90
2022-07-25T15:58:10.112Z,23.70
2022-07-25T16:03:05.666Z,23.50
2022-07-25T16:05:32.627Z,23.50
2022-07-25T16:08:01.041Z,23.30
2022-07-25T16:10:29.117Z,23.30
2022-07-25T16:12:56.005Z,23.20
2022-07-25T16:15:23.274Z,23.00
2022-07-25T16:17:53.040Z,22.80
2022-07-25T16:20:20.318Z,22.60
2022-07-25T16:22:48.929Z,22.50
2022-07-25T16:25:15.832Z,22.50
2022-07-25T16:27:42.592Z,22.50
2022-07-25T16:30:09.813Z,22.50
2022-07-25T16:32:36.587Z,22.60
2022-07-25T16:35:03.442Z,22.60
2022-07-25T16:37:30.267Z,22.60
2022-07-25T16:39:57.036Z,22.60
2022-07-25T16:42:23.716Z,22.60
2022-07-25T16:44:50.523Z,22.60
2022-07-25T16:47:17.266Z,22.60
2022-07-25T16:49:44.123Z,22.50
2022-07-25T16:52:10.923Z,22.50
2022-07-25T16:54:37.873Z,22.50
2022-07-25T16:57:04.614Z,22.50
2022-07-25T16:59:31.447Z,22.50
2022-07-25T17:01:58.293Z,22.50
2022-07-25T17:04:25.247Z,22.50
2022-07-25T17:06:52.146Z,22.60
2022-07-25T17:09:18.954Z,22.50
2022-07-25T17:11:45.723Z,22.50
2022-07-25T17:14:12.591Z,22.60
2022-07-25T17:16:41.366Z,22.60
2022-07-25T17:19:08.744Z,22.60
2022-07-25T17:21:35.867Z,22.60
2022-07-25T17:24:03.073Z,22.50
2022-07-25T17:26:30.164Z,22.50
2022-07-25T17:28:56.977Z,22.50
2022-07-25T17:31:24.939Z,22.50
2022-07-25T17:33:51.906Z,22.50
2022-07-25T17:36:19.341Z,22.40
2022-07-25T17:38:46.185Z,22.30
2022-07-25T17:41:13.057Z,22.30
2022-07-25T17:43:40.510Z,22.20
2022-07-25T17:46:07.511Z,22.20
2022-07-25T17:48:34.833Z,22.20
2022-07-25T17:51:01.734Z,22.20
2022-07-25T18:10:44.090Z,22.10
2022-07-25T18:13:11.196Z,21.80
2022-07-25T18:15:38.068Z,21.70
2022-07-25T18:27:58.820Z,21.50
2022-07-25T18:30:29.093Z,21.50
2022-07-25T18:32:56.470Z,21.40
2022-07-25T18:35:23.838Z,21.40
2022-07-25T18:37:50.705Z,21.40
2022-07-25T18:40:19.588Z,21.30
2022-07-25T18:42:46.702Z,21.30
2022-07-25T18:45:14.360Z,21.20
2022-07-25T18:47:41.337Z,21.20
2022-07-25T18:50:08.700Z,21.10
2022-07-25T18:52:36.200Z,21.10
2022-07-25T18:55:05.388Z,21.10
2022-07-25T19:04:57.934Z,20.90
2022-07-25T19:07:26.019Z,20.90
2022-07-25T19:09:52.865Z,20.80
2022-07-25T19:12:19.690Z,20.80
2022-07-25T19:19:41.368Z,20.70
2022-07-25T19:22:08.299Z,20.70
2022-07-25T19:24:35.180Z,20.60
2022-07-25T19:27:04.547Z,20.60
2022-07-25T19:29:31.740Z,20.60
2022-07-25T19:31:58.711Z,20.50
2022-07-25T19:34:25.680Z,20.50
2022-07-25T19:36:52.800Z,20.40
2022-07-25T19:39:19.744Z,20.40
2022-07-25T19:41:48.458Z,20.40
2022-07-25T19:44:15.409Z,20.30
2022-07-25T19:46:42.314Z,20.30
2022-07-25T19:49:09.329Z,20.20
2022-07-25T19:51:36.235Z,20.20
2022-07-25T19:54:04.151Z,20.20
2022-07-25T20:13:46.428Z,20.00
2022-07-25T20:21:08.013Z,19.70
2022-07-25T20:23:34.824Z,19.70
2022-07-25T20:26:02.491Z,19.60
2022-07-25T20:28:29.352Z,19.60
2022-07-25T20:30:56.596Z,19.60
2022-07-25T20:33:27.067Z,19.50
2022-07-25T20:35:57.834Z,19.60
2022-07-25T20:43:24.266Z,19.50
2022-07-25T20:45:51.178Z,19.40
2022-07-25T20:48:18.145Z,19.40
2022-07-25T20:50:45.043Z,19.40
2022-07-25T20:53:12.315Z,19.30
2022-07-25T21:03:01.629Z,19.30
2022-07-25T21:07:56.189Z,19.10
2022-07-25T21:10:23.521Z,19.10
2022-07-25T21:17:45.017Z,19.00
2022-07-25T23:48:29.552Z,18.00
2022-07-25T23:50:56.808Z,17.20
2022-07-25T23:53:23.750Z,17.10
2022-07-25T23:55:50.686Z,17.10
